Time;durP1;ratioP1;P1;durP2;ratioP2;P2;SDS_P1;SDS_P2;PMS_P1;PMS_P2;Temp;Humidity;BMP_temperature;BMP_pressure;BME280_temperature;BME280_humidity;BME280_pressure;Samples;Min_cycle;Max_cycle;Signal;HPM_P1;HPM_P2
2021/12/11 00:00:18;;;;;;;17.27;9.60;;;;;;;;;;5077282;28;20329;-65
2021/12/11 00:02:53;;;;;;;21.03;8.57;;;;;;;;;;5078676;28;20323;-66
2021/12/11 00:05:19;;;;;;;20.30;10.53;;;;;;;;;;5080322;28;20373;-65
2021/12/11 00:07:45;;;;;;;25.03;10.60;;;;;;;;;;5061070;28;20283;-65
2021/12/11 00:10:14;;;;;;;22.63;11.67;;;;;;;;;;5077003;28;20293;-65
2021/12/11 00:12:52;;;;;;;23.20;11.10;;;;;;;;;;5077655;28;20464;-66
2021/12/11 00:15:20;;;;;;;26.93;11.67;;;;;;;;;;5077467;28;20278;-65
2021/12/11 00:17:46;;;;;;;24.93;13.20;;;;;;;;;;5081878;28;20628;-66
2021/12/11 00:20:22;;;;;;;23.57;11.13;;;;;;;;;;5060865;28;20867;-66
2021/12/11 00:22:48;;;;;;;20.43;10.70;;;;;;;;;;5079719;28;20294;-65
2021/12/11 00:25:15;;;;;;;24.40;10.63;;;;;;;;;;5078280;28;20350;-66
2021/12/11 00:27:43;;;;;;;26.20;11.10;;;;;;;;;;5078674;28;20302;-65
2021/12/11 00:30:10;;;;;;;24.93;12.40;;;;;;;;;;5078647;28;20293;-65
2021/12/11 00:32:37;;;;;;;24.20;12.90;;;;;;;;;;5076745;28;20290;-65
2021/12/11 00:35:06;;;;;;;26.73;13.37;;;;;;;;;;5080030;28;20298;-66
2021/12/11 00:37:32;;;;;;;29.73;13.37;;;;;;;;;;5078159;28;20304;-66
2021/12/11 00:40:06;;;;;;;30.90;13.97;;;;;;;;;;5062792;28;20313;-65
2021/12/11 00:42:33;;;;;;;29.20;13.57;;;;;;;;;;5077270;28;20374;-65
2021/12/11 00:45:00;;;;;;;31.13;13.93;;;;;;;;;;5081470;28;20314;-66
2021/12/11 00:47:28;;;;;;;38.37;16.30;;;;;;;;;;5063740;28;20948;-65
2021/12/11 00:49:59;;;;;;;36.43;13.73;;;;;;;;;;5081627;28;20286;-66
2021/12/11 00:52:36;;;;;;;35.13;14.77;;;;;;;;;;5076951;28;20637;-65
2021/12/11 00:55:05;;;;;;;30.87;14.50;;;;;;;;;;5080325;28;20283;-65
2021/12/11 00:57:31;;;;;;;34.53;15.63;;;;;;;;;;5076956;28;20314;-65
2021/12/11 01:00:11;;;;;;;29.57;14.23;;;;;;;;;;5078532;28;20329;-65
2021/12/11 01:02:38;;;;;;;30.57;14.03;;;;;;;;;;5060230;28;20094;-65
2021/12/11 01:05:05;;;;;;;31.63;15.03;;;;;;;;;;5075282;28;20341;-65
2021/12/11 01:07:33;;;;;;;32.03;16.20;;;;;;;;;;5082194;28;20361;-65
2021/12/11 01:10:01;;;;;;;35.70;15.23;;;;;;;;;;5081020;28;20277;-65
2021/12/11 01:12:40;;;;;;;31.43;14.17;;;;;;;;;;5063990;28;20290;-65
2021/12/11 01:15:13;;;;;;;30.47;13.53;;;;;;;;;;5080276;28;20290;-65
2021/12/11 01:17:59;;;;;;;33.33;15.43;;;;;;;;;;5079079;28;20830;-65
2021/12/11 01:20:34;;;;;;;29.23;14.03;;;;;;;;;;5083618;28;20286;-66
2021/12/11 01:23:02;;;;;;;30.43;14.33;;;;;;;;;;5080739;28;20286;-66
2021/12/11 01:25:28;;;;;;;25.13;12.37;;;;;;;;;;5085484;28;20286;-65
2021/12/11 01:27:57;;;;;;;30.57;13.87;;;;;;;;;;5081023;28;20395;-65
2021/12/11 01:30:25;;;;;;;26.73;11.97;;;;;;;;;;5084536;28;20285;-65
2021/12/11 01:32:51;;;;;;;28.13;14.00;;;;;;;;;;5084898;28;20336;-65
2021/12/11 01:35:18;;;;;;;27.17;14.50;;;;;;;;;;5081388;28;20282;-65
2021/12/11 01:37:48;;;;;;;28.23;13.67;;;;;;;;;;5085334;28;20318;-65
2021/12/11 01:40:16;;;;;;;28.83;14.13;;;;;;;;;;5080116;28;20307;-65
2021/12/11 01:42:43;;;;;;;26.63;11.70;;;;;;;;;;5079823;28;20290;-65
2021/12/11 01:45:10;;;;;;;26.67;12.83;;;;;;;;;;5081247;28;20306;-65
2021/12/11 01:47:38;;;;;;;24.03;11.97;;;;;;;;;;5081328;28;20330;-65
2021/12/11 01:50:18;;;;;;;24.47;11.97;;;;;;;;;;5078298;28;20332;-65
2021/12/11 01:52:47;;;;;;;27.03;13.53;;;;;;;;;;5071827;28;20287;-65
2021/12/11 01:55:19;;;;;;;24.03;12.13;;;;;;;;;;5054158;28;20283;-65
2021/12/11 01:57:49;;;;;;;28.23;13.67;;;;;;;;;;5071554;28;20283;-65
2021/12/11 02:00:18;;;;;;;31.07;13.03;;;;;;;;;;5071473;28;20850;-65
2021/12/11 02:02:49;;;;;;;23.80;12.00;;;;;;;;;;5071923;28;20815;-66
2021/12/11 02:05:19;;;;;;;26.37;13.40;;;;;;;;;;5053786;28;20315;-65
2021/12/11 02:07:47;;;;;;;29.23;13.67;;;;;;;;;;5053918;28;20298;-66
2021/12/11 02:10:18;;;;;;;31.97;16.47;;;;;;;;;;5071490;28;20912;-66
2021/12/11 02:12:45;;;;;;;43.10;19.47;;;;;;;;;;5071945;28;20343;-65
2021/12/11 02:15:14;;;;;;;46.27;19.20;;;;;;;;;;5091691;28;20282;-65
2021/12/11 02:17:47;;;;;;;39.00;16.97;;;;;;;;;;5091750;28;20294;-65
2021/12/11 02:20:15;;;;;;;35.20;15.88;;;;;;;;;;5073630;28;20290;-66
2021/12/11 02:22:44;;;;;;;40.33;18.00;;;;;;;;;;5091318;28;20429;-65
2021/12/11 02:25:18;;;;;;;34.53;16.13;;;;;;;;;;5091632;28;20349;-66
2021/12/11 02:27:46;;;;;;;35.13;15.83;;;;;;;;;;5091677;28;21019;-65
2021/12/11 02:30:16;;;;;;;31.20;15.53;;;;;;;;;;5091374;28;20282;-65
2021/12/11 02:32:45;;;;;;;37.27;15.90;;;;;;;;;;5091408;28;20347;-65
2021/12/11 02:35:13;;;;;;;34.70;15.73;;;;;;;;;;5091381;28;20293;-65
2021/12/11 02:37:44;;;;;;;29.77;15.70;;;;;;;;;;5091340;28;20289;-65
2021/12/11 02:40:17;;;;;;;34.40;16.17;;;;;;;;;;5091018;28;20432;-65
2021/12/11 02:42:46;;;;;;;33.85;15.02;;;;;;;;;;5091715;28;20291;-65
2021/12/11 02:45:29;;;;;;;32.93;13.67;;;;;;;;;;5072699;28;20059;-66
2021/12/11 02:47:57;;;;;;;27.85;12.82;;;;;;;;;;5091042;28;20297;-65
2021/12/11 02:50:26;;;;;;;31.30;14.13;;;;;;;;;;5091396;28;20047;-65
2021/12/11 02:53:00;;;;;;;29.20;13.57;;;;;;;;;;5091180;28;20388;-65
2021/12/11 02:55:47;;;;;;;30.75;13.80;;;;;;;;;;5091435;28;20286;-65
2021/12/11 02:58:16;;;;;;;33.83;15.00;;;;;;;;;;5091219;28;20044;-65
2021/12/11 03:00:53;;;;;;;31.90;16.40;;;;;;;;;;5073270;28;20286;-65
2021/12/11 03:03:25;;;;;;;38.70;15.83;;;;;;;;;;5090903;28;20398;-65
2021/12/11 03:06:03;;;;;;;28.50;14.87;;;;;;;;;;5091153;28;20653;-65
2021/12/11 03:08:29;;;;;;;31.60;13.60;;;;;;;;;;5090522;28;20302;-65
2021/12/11 03:10:56;;;;;;;30.40;15.10;;;;;;;;;;5072624;28;20293;-65
2021/12/11 03:13:23;;;;;;;35.27;16.50;;;;;;;;;;5090507;28;20772;-65
2021/12/11 03:15:49;;;;;;;33.80;14.23;;;;;;;;;;5070278;28;20291;-66
2021/12/11 03:18:16;;;;;;;31.07;14.10;;;;;;;;;;5070772;28;20283;-65
2021/12/11 03:20:44;;;;;;;27.80;13.33;;;;;;;;;;5070117;28;20279;-65
2021/12/11 03:23:10;;;;;;;28.00;15.23;;;;;;;;;;5070421;28;20275;-65
2021/12/11 03:25:36;;;;;;;27.47;14.90;;;;;;;;;;5070533;28;20287;-66
2021/12/11 03:28:04;;;;;;;35.57;15.03;;;;;;;;;;5070121;28;20279;-65
2021/12/11 03:30:31;;;;;;;34.23;15.23;;;;;;;;;;5070076;28;20370;-65
2021/12/11 03:33:00;;;;;;;31.87;16.03;;;;;;;;;;5069769;28;20287;-65
2021/12/11 03:35:27;;;;;;;29.90;14.87;;;;;;;;;;5070256;28;20290;-65
2021/12/11 03:37:53;;;;;;;28.60;14.37;;;;;;;;;;5070992;28;20279;-66
2021/12/11 03:40:20;;;;;;;33.93;14.83;;;;;;;;;;5089615;28;20289;-65
2021/12/11 03:42:47;;;;;;;30.37;14.10;;;;;;;;;;5089754;28;21315;-65
2021/12/11 03:45:16;;;;;;;25.77;14.37;;;;;;;;;;5089806;28;20332;-65
2021/12/11 03:47:45;;;;;;;31.80;13.93;;;;;;;;;;5078870;28;20655;-65
2021/12/11 03:50:12;;;;;;;31.80;14.40;;;;;;;;;;5079176;28;20393;-65
2021/12/11 03:52:39;;;;;;;33.47;16.00;;;;;;;;;;5076687;28;20291;-65
2021/12/11 03:55:05;;;;;;;74.17;18.67;;;;;;;;;;5080352;28;20324;-65
2021/12/11 03:57:31;;;;;;;100.63;23.43;;;;;;;;;;5089826;28;20289;-65
2021/12/11 03:59:58;;;;;;;44.17;18.57;;;;;;;;;;5089992;28;20286;-65
2021/12/11 04:02:26;;;;;;;69.20;19.90;;;;;;;;;;5090015;28;20282;-65
2021/12/11 04:04:53;;;;;;;114.80;24.40;;;;;;;;;;5089546;28;21264;-65
2021/12/11 04:07:22;;;;;;;234.20;36.67;;;;;;;;;;5079778;28;20372;-65
2021/12/11 04:09:49;;;;;;;153.33;25.57;;;;;;;;;;5051708;28;20380;-65
2021/12/11 04:12:15;;;;;;;33.17;14.67;;;;;;;;;;5052961;28;20891;-65
2021/12/11 04:14:44;;;;;;;33.10;13.97;;;;;;;;;;5089436;28;20286;-65
2021/12/11 04:17:11;;;;;;;38.83;15.13;;;;;;;;;;5089487;28;20298;-65
2021/12/11 04:19:38;;;;;;;66.73;16.60;;;;;;;;;;5089026;28;20278;-65
2021/12/11 04:22:05;;;;;;;31.83;14.27;;;;;;;;;;5071298;28;21169;-65
2021/12/11 04:24:31;;;;;;;30.37;14.13;;;;;;;;;;5089021;28;20309;-65
2021/12/11 04:26:59;;;;;;;29.93;13.17;;;;;;;;;;5089536;28;20283;-65
2021/12/11 04:29:25;;;;;;;30.73;13.37;;;;;;;;;;5089121;28;20286;-65
2021/12/11 04:31:51;;;;;;;28.03;14.87;;;;;;;;;;5089002;28;20286;-65
2021/12/11 04:34:19;;;;;;;39.20;17.27;;;;;;;;;;5089322;28;20288;-65
2021/12/11 04:36:50;;;;;;;33.20;15.77;;;;;;;;;;5089432;28;20357;-65
2021/12/11 04:39:18;;;;;;;34.47;15.20;;;;;;;;;;5089054;28;20370;-65
2021/12/11 04:42:27;;;;;;;33.23;14.97;;;;;;;;;;5089350;28;20313;-65
2021/12/11 04:44:44;;;;;;;40.53;17.20;;;;;;;;;;5067726;28;20320;-66
2021/12/11 04:47:15;;;;;;;30.40;13.87;;;;;;;;;;5077701;28;20063;-65
2021/12/11 04:49:52;;;;;;;33.47;15.27;;;;;;;;;;5068808;28;20313;-66
2021/12/11 04:52:29;;;;;;;29.50;15.07;;;;;;;;;;5068741;28;20305;-66
2021/12/11 04:55:10;;;;;;;32.67;15.67;;;;;;;;;;5068940;28;20290;-65
2021/12/11 04:57:56;;;;;;;27.90;13.20;;;;;;;;;;5051107;28;20396;-65
2021/12/11 05:04:00;;;;;;;35.10;15.90;;;;;;;;;;5068921;28;20329;-65
2021/12/11 05:11:10;;;;;;;25.43;13.40;;;;;;;;;;5068840;28;20866;-66
2021/12/11 05:13:36;;;;;;;25.70;12.13;;;;;;;;;;5068380;28;20360;-65
2021/12/11 05:16:07;;;;;;;30.37;14.37;;;;;;;;;;5068578;28;20282;-65
2021/12/11 05:18:34;;;;;;;28.73;13.40;;;;;;;;;;5050337;28;20887;-66
2021/12/11 05:21:03;;;;;;;33.43;15.27;;;;;;;;;;5050884;28;20291;-65
2021/12/11 05:23:30;;;;;;;30.03;13.90;;;;;;;;;;5068731;28;20352;-65
2021/12/11 05:25:57;;;;;;;30.40;15.03;;;;;;;;;;5068520;28;20290;-65
2021/12/11 05:28:23;;;;;;;31.47;15.47;;;;;;;;;;5069210;28;20830;-65
2021/12/11 05:30:50;;;;;;;31.67;15.57;;;;;;;;;;5068299;28;20289;-65
2021/12/11 05:33:17;;;;;;;39.57;17.17;;;;;;;;;;5068778;28;20332;-65
2021/12/11 05:35:43;;;;;;;43.70;18.40;;;;;;;;;;5067852;28;20644;-65
2021/12/11 05:38:11;;;;;;;42.97;18.63;;;;;;;;;;5068624;28;20301;-65
2021/12/11 05:40:39;;;;;;;41.40;18.13;;;;;;;;;;5050427;28;20289;-65
2021/12/11 05:43:05;;;;;;;38.50;18.20;;;;;;;;;;5068201;28;20792;-65
2021/12/11 05:45:32;;;;;;;43.17;19.37;;;;;;;;;;5068124;28;20283;-65
2021/12/11 05:47:58;;;;;;;44.57;19.37;;;;;;;;;;5065499;28;20365;-65
2021/12/11 05:50:27;;;;;;;43.23;18.70;;;;;;;;;;5088220;28;20282;-65
2021/12/11 05:52:53;;;;;;;44.10;20.73;;;;;;;;;;5088621;28;20625;-65
2021/12/11 05:55:20;;;;;;;47.83;21.53;;;;;;;;;;5090272;28;20365;-65
2021/12/11 05:57:52;;;;;;;45.27;22.67;;;;;;;;;;5073978;28;20298;-65
2021/12/11 06:00:19;;;;;;;48.63;21.90;;;;;;;;;;5072935;28;20293;-65
2021/12/11 06:02:45;;;;;;;53.63;25.23;;;;;;;;;;5092449;28;20274;-65
2021/12/11 06:05:11;;;;;;;59.80;26.13;;;;;;;;;;5092026;28;20356;-66
2021/12/11 06:07:42;;;;;;;48.80;24.07;;;;;;;;;;5092216;28;20384;-65
2021/12/11 06:10:10;;;;;;;51.93;25.23;;;;;;;;;;5091892;28;20290;-65
2021/12/11 06:12:36;;;;;;;57.27;24.90;;;;;;;;;;5091740;28;20659;-65
2021/12/11 06:15:03;;;;;;;45.60;20.40;;;;;;;;;;5091100;28;20294;-64
2021/12/11 06:17:32;;;;;;;38.87;17.87;;;;;;;;;;5091632;28;20406;-65
2021/12/11 06:19:59;;;;;;;34.40;17.67;;;;;;;;;;5073130;28;20301;-66
2021/12/11 06:22:28;;;;;;;28.37;15.33;;;;;;;;;;5090959;28;20290;-65
2021/12/11 06:24:55;;;;;;;37.57;16.17;;;;;;;;;;5069806;28;20369;-65
2021/12/11 06:27:22;;;;;;;34.80;15.90;;;;;;;;;;5085942;28;20795;-65
2021/12/11 06:29:48;;;;;;;36.17;16.43;;;;;;;;;;5090895;28;20316;-65
2021/12/11 06:32:14;;;;;;;37.30;18.97;;;;;;;;;;5090796;28;20397;-65
2021/12/11 06:34:40;;;;;;;29.90;14.50;;;;;;;;;;5071437;28;20294;-65
2021/12/11 06:37:07;;;;;;;39.77;17.77;;;;;;;;;;5059769;28;20294;-65
2021/12/11 06:39:33;;;;;;;38.17;18.60;;;;;;;;;;5090954;28;20286;-65
2021/12/11 06:42:01;;;;;;;42.70;19.63;;;;;;;;;;5090390;28;20307;-65
2021/12/11 06:44:28;;;;;;;49.23;22.43;;;;;;;;;;5091388;28;20396;-65
2021/12/11 06:46:58;;;;;;;40.83;19.87;;;;;;;;;;5091101;28;20289;-65
2021/12/11 06:49:25;;;;;;;33.63;17.23;;;;;;;;;;5091185;28;20279;-65
2021/12/11 06:51:51;;;;;;;38.80;17.60;;;;;;;;;;5090228;28;20294;-65
2021/12/11 06:54:17;;;;;;;39.70;17.80;;;;;;;;;;5089715;28;20308;-65
2021/12/11 06:56:44;;;;;;;32.20;16.50;;;;;;;;;;5070615;28;20291;-65
2021/12/11 06:59:10;;;;;;;33.27;17.43;;;;;;;;;;5070050;28;20299;-65
2021/12/11 07:01:36;;;;;;;38.63;18.03;;;;;;;;;;5070520;28;20287;-65
2021/12/11 07:04:04;;;;;;;37.63;15.90;;;;;;;;;;5088638;28;20310;-65
2021/12/11 07:06:31;;;;;;;34.63;17.77;;;;;;;;;;5090402;28;20792;-65
2021/12/11 07:08:58;;;;;;;41.60;18.83;;;;;;;;;;5091041;28;20933;-65
2021/12/11 07:11:24;;;;;;;40.93;19.27;;;;;;;;;;5090284;28;20869;-65
2021/12/11 07:13:50;;;;;;;36.60;18.23;;;;;;;;;;5090684;28;20286;-65
2021/12/11 07:16:17;;;;;;;47.53;21.63;;;;;;;;;;5090490;28;20435;-65
2021/12/11 07:18:43;;;;;;;43.37;20.13;;;;;;;;;;5090241;28;20298;-65
2021/12/11 07:21:09;;;;;;;40.30;20.23;;;;;;;;;;5090373;28;20766;-65
2021/12/11 07:23:36;;;;;;;40.77;20.57;;;;;;;;;;5090024;28;20810;-65
2021/12/11 07:26:05;;;;;;;46.87;19.77;;;;;;;;;;5090737;28;20783;-65
2021/12/11 07:28:31;;;;;;;43.87;20.93;;;;;;;;;;5089580;28;20297;-65
2021/12/11 07:30:58;;;;;;;39.37;18.97;;;;;;;;;;5060140;28;20360;-66
2021/12/11 07:33:25;;;;;;;34.17;18.33;;;;;;;;;;5082994;28;20295;-65
2021/12/11 07:35:52;;;;;;;42.93;19.30;;;;;;;;;;5084234;28;20344;-65
2021/12/11 07:38:18;;;;;;;44.23;21.30;;;;;;;;;;5082268;28;20291;-65
2021/12/11 07:40:47;;;;;;;47.43;23.03;;;;;;;;;;5069546;28;20287;-65
2021/12/11 07:43:13;;;;;;;48.17;22.53;;;;;;;;;;5069945;28;20286;-65
2021/12/11 07:45:39;;;;;;;55.77;25.73;;;;;;;;;;5064966;28;20732;-65
2021/12/11 07:48:06;;;;;;;53.27;22.83;;;;;;;;;;5089353;28;20293;-65
2021/12/11 07:50:33;;;;;;;45.37;22.20;;;;;;;;;;5089360;28;20278;-66
2021/12/11 07:52:59;;;;;;;48.70;22.80;;;;;;;;;;5073737;28;20337;-66
2021/12/11 07:55:25;;;;;;;50.07;23.23;;;;;;;;;;5069089;28;20290;-65
2021/12/11 07:57:51;;;;;;;46.83;24.23;;;;;;;;;;5054535;28;20705;-65
2021/12/11 08:00:19;;;;;;;44.90;22.90;;;;;;;;;;5083919;28;20060;-65
2021/12/11 08:02:45;;;;;;;49.57;22.30;;;;;;;;;;5069264;28;20820;-66
2021/12/11 08:05:11;;;;;;;56.97;24.73;;;;;;;;;;5069107;28;20365;-66
2021/12/11 08:07:38;;;;;;;52.43;25.70;;;;;;;;;;5087716;28;20313;-66
2021/12/11 08:10:06;;;;;;;53.60;23.13;;;;;;;;;;5070520;28;20293;-65
2021/12/11 08:12:32;;;;;;;50.47;23.63;;;;;;;;;;5088988;28;20355;-65
2021/12/11 08:14:58;;;;;;;50.90;22.47;;;;;;;;;;5080641;28;20297;-65
2021/12/11 08:17:24;;;;;;;42.70;20.90;;;;;;;;;;5088289;28;20286;-65
2021/12/11 08:19:50;;;;;;;54.17;24.73;;;;;;;;;;5088959;28;20278;-65
2021/12/11 08:22:16;;;;;;;46.13;22.07;;;;;;;;;;5084035;28;20286;-65
2021/12/11 08:24:42;;;;;;;45.47;22.40;;;;;;;;;;5073552;28;20044;-65
2021/12/11 08:27:11;;;;;;;46.33;22.57;;;;;;;;;;5079425;28;20036;-65
2021/12/11 08:29:38;;;;;;;47.10;23.90;;;;;;;;;;5056210;28;21014;-65
2021/12/11 08:32:04;;;;;;;54.93;25.03;;;;;;;;;;5087901;28;20817;-65
2021/12/11 08:34:31;;;;;;;53.63;23.53;;;;;;;;;;5088661;28;20294;-65
2021/12/11 08:36:57;;;;;;;54.73;26.87;;;;;;;;;;5088593;28;20336;-65
2021/12/11 08:39:23;;;;;;;57.13;25.53;;;;;;;;;;5066566;28;20294;-65
2021/12/11 08:41:52;;;;;;;44.03;24.23;;;;;;;;;;5068712;28;20287;-65
2021/12/11 08:44:18;;;;;;;47.10;25.47;;;;;;;;;;5084843;28;20396;-65
2021/12/11 08:46:50;;;;;;;52.77;26.30;;;;;;;;;;5088525;28;20681;-65
2021/12/11 08:49:19;;;;;;;52.70;25.50;;;;;;;;;;5077435;28;20292;-66
2021/12/11 08:51:51;;;;;;;55.90;27.23;;;;;;;;;;5085859;28;20304;-65
2021/12/11 08:54:17;;;;;;;59.77;27.47;;;;;;;;;;5088509;28;20372;-65
2021/12/11 08:56:43;;;;;;;64.93;33.00;;;;;;;;;;5088386;28;20790;-65
2021/12/11 08:59:14;;;;;;;68.50;32.20;;;;;;;;;;5088967;28;20365;-66
2021/12/11 09:01:43;;;;;;;68.57;33.67;;;;;;;;;;5088118;28;20298;-65
2021/12/11 09:04:17;;;;;;;73.70;33.87;;;;;;;;;;5088794;28;21027;-66
2021/12/11 09:06:48;;;;;;;67.70;33.93;;;;;;;;;;5088601;28;20294;-65
2021/12/11 09:09:18;;;;;;;82.47;33.70;;;;;;;;;;5076869;28;20645;-66
2021/12/11 09:11:48;;;;;;;72.90;36.50;;;;;;;;;;5062688;28;20366;-65
2021/12/11 09:14:16;;;;;;;87.83;39.13;;;;;;;;;;5084423;28;20337;-66
2021/12/11 09:16:47;;;;;;;82.23;38.50;;;;;;;;;;5087576;28;20652;-65
2021/12/11 09:19:17;;;;;;;91.30;37.53;;;;;;;;;;5088487;28;20355;-65
2021/12/11 09:21:49;;;;;;;93.10;40.70;;;;;;;;;;5087464;28;20290;-65
2021/12/11 09:24:25;;;;;;;88.73;41.63;;;;;;;;;;5087855;28;20331;-66
2021/12/11 09:26:57;;;;;;;87.53;40.60;;;;;;;;;;5087996;28;20351;-65
2021/12/11 09:29:35;;;;;;;89.30;43.47;;;;;;;;;;5070630;28;20718;-65
2021/12/11 09:32:11;;;;;;;92.53;44.47;;;;;;;;;;5091986;28;20325;-65
2021/12/11 09:34:43;;;;;;;85.33;40.87;;;;;;;;;;5074084;28;20302;-65
2021/12/11 09:37:09;;;;;;;89.67;42.07;;;;;;;;;;5091901;28;20282;-65
2021/12/11 09:39:55;;;;;;;88.93;44.93;;;;;;;;;;5091726;28;20787;-66
2021/12/11 09:42:21;;;;;;;95.53;46.87;;;;;;;;;;5091760;28;20796;-65
2021/12/11 09:44:50;;;;;;;87.60;42.03;;;;;;;;;;5091545;28;20302;-66
2021/12/11 09:47:22;;;;;;;94.50;45.70;;;;;;;;;;5091810;28;20394;-66
2021/12/11 09:49:53;;;;;;;107.20;52.23;;;;;;;;;;5091694;28;20688;-66
2021/12/11 09:52:24;;;;;;;113.17;54.67;;;;;;;;;;5091193;28;20675;-66
2021/12/11 09:55:11;;;;;;;172.70;70.40;;;;;;;;;;5092078;28;20297;-66
2021/12/11 09:57:38;;;;;;;134.50;63.37;;;;;;;;;;5074200;28;20283;-66
2021/12/11 10:00:10;;;;;;;164.93;68.53;;;;;;;;;;5091525;28;20294;-66
2021/12/11 10:02:36;;;;;;;177.43;76.47;;;;;;;;;;5073196;28;20353;-66
2021/12/11 10:05:07;;;;;;;165.00;74.60;;;;;;;;;;5091317;28;20664;-66
2021/12/11 10:07:39;;;;;;;157.63;77.57;;;;;;;;;;5091352;28;20293;-66
2021/12/11 10:10:23;;;;;;;144.13;73.47;;;;;;;;;;5073532;28;20647;-66
2021/12/11 10:12:51;;;;;;;116.80;64.88;;;;;;;;;;5091140;28;20382;-66
2021/12/11 10:15:23;;;;;;;103.40;60.13;;;;;;;;;;5090792;28;20387;-66
2021/12/11 10:18:00;;;;;;;98.23;57.17;;;;;;;;;;5091110;28;20282;-66
2021/12/11 10:20:31;;;;;;;85.80;52.70;;;;;;;;;;5073052;28;20888;-66
2021/12/11 10:22:58;;;;;;;81.33;49.50;;;;;;;;;;5091116;28;20286;-67
2021/12/11 10:25:30;;;;;;;66.43;44.23;;;;;;;;;;5090828;28;20798;-67
2021/12/11 10:27:56;;;;;;;68.30;42.17;;;;;;;;;;5054404;28;20299;-67
2021/12/11 10:30:24;;;;;;;63.83;39.60;;;;;;;;;;5070915;28;20306;-67
2021/12/11 10:32:51;;;;;;;56.67;36.90;;;;;;;;;;5070730;28;20776;-67
2021/12/11 10:35:19;;;;;;;56.97;35.87;;;;;;;;;;5070576;28;21162;-67
2021/12/11 10:37:45;;;;;;;55.13;35.80;;;;;;;;;;5036375;28;20289;-67
2021/12/11 10:40:11;;;;;;;55.40;37.30;;;;;;;;;;5070761;28;20062;-68
2021/12/11 10:42:38;;;;;;;63.27;38.27;;;;;;;;;;5070419;28;20309;-68
2021/12/11 10:45:07;;;;;;;44.37;28.97;;;;;;;;;;5089487;28;20804;-68
2021/12/11 10:47:37;;;;;;;50.93;32.20;;;;;;;;;;5090483;28;20312;-68
2021/12/11 10:50:09;;;;;;;50.37;33.63;;;;;;;;;;5089506;28;20341;-68
2021/12/11 10:52:36;;;;;;;54.20;38.33;;;;;;;;;;5084353;28;20075;-68
2021/12/11 10:55:04;;;;;;;46.17;35.30;;;;;;;;;;5085137;28;20048;-68
2021/12/11 10:57:31;;;;;;;44.63;31.70;;;;;;;;;;5071998;28;20052;-68
2021/12/11 10:59:58;;;;;;;49.10;29.93;;;;;;;;;;5063614;28;20121;-67
2021/12/11 11:02:26;;;;;;;44.67;30.77;;;;;;;;;;5089297;28;20055;-67
2021/12/11 11:04:53;;;;;;;41.00;28.37;;;;;;;;;;5088389;28;20051;-68
2021/12/11 11:07:20;;;;;;;37.63;27.53;;;;;;;;;;5086609;28;20614;-68
2021/12/11 11:09:48;;;;;;;47.43;28.90;;;;;;;;;;5070937;28;20048;-68
2021/12/11 11:12:15;;;;;;;42.23;28.97;;;;;;;;;;5085858;28;20063;-68
2021/12/11 11:14:42;;;;;;;43.97;28.63;;;;;;;;;;5085795;28;20052;-68
2021/12/11 11:17:11;;;;;;;44.20;28.03;;;;;;;;;;5083723;28;20531;-68
2021/12/11 11:19:40;;;;;;;35.10;25.10;;;;;;;;;;5083571;28;20144;-69
2021/12/11 11:22:08;;;;;;;39.67;25.90;;;;;;;;;;5089359;28;20517;-69
2021/12/11 11:24:36;;;;;;;37.20;24.43;;;;;;;;;;5088434;28;20054;-69
2021/12/11 11:27:03;;;;;;;32.93;21.17;;;;;;;;;;5087035;28;20496;-69
2021/12/11 11:29:29;;;;;;;37.13;21.50;;;;;;;;;;5089958;28;20043;-69
2021/12/11 11:31:58;;;;;;;32.10;22.77;;;;;;;;;;5088528;28;20044;-70
2021/12/11 11:34:26;;;;;;;40.03;22.20;;;;;;;;;;5089757;28;20085;-70
2021/12/11 11:36:53;;;;;;;31.83;22.13;;;;;;;;;;5088158;28;20134;-70
2021/12/11 11:39:21;;;;;;;33.93;22.20;;;;;;;;;;5081913;28;20051;-70
2021/12/11 11:41:50;;;;;;;31.13;20.50;;;;;;;;;;5080108;28;20079;-70
2021/12/11 11:44:16;;;;;;;30.97;21.00;;;;;;;;;;5080025;28;20158;-70
2021/12/11 11:46:43;;;;;;;34.43;20.70;;;;;;;;;;5081769;28;20189;-70
2021/12/11 11:49:10;;;;;;;40.63;23.07;;;;;;;;;;5085088;28;20355;-70
2021/12/11 11:51:38;;;;;;;30.83;21.20;;;;;;;;;;5088615;28;20374;-70
2021/12/11 11:54:05;;;;;;;31.80;20.27;;;;;;;;;;5070761;28;20599;-70
2021/12/11 11:56:34;;;;;;;30.87;19.60;;;;;;;;;;5083968;28;20048;-70
2021/12/11 11:59:01;;;;;;;42.23;22.60;;;;;;;;;;5089328;28;20048;-70
2021/12/11 12:01:28;;;;;;;36.47;21.20;;;;;;;;;;5088192;28;20044;-70
2021/12/11 12:03:55;;;;;;;31.27;20.53;;;;;;;;;;5089064;28;20062;-70
2021/12/11 12:06:24;;;;;;;36.87;23.00;;;;;;;;;;5088162;28;20044;-70
2021/12/11 12:08:52;;;;;;;32.80;22.47;;;;;;;;;;5086852;28;20071;-70
2021/12/11 12:11:19;;;;;;;30.23;20.80;;;;;;;;;;5086960;28;20123;-70
2021/12/11 12:13:45;;;;;;;30.27;20.63;;;;;;;;;;5087739;28;20040;-70
2021/12/11 12:16:13;;;;;;;30.33;21.00;;;;;;;;;;5088147;28;20048;-70
2021/12/11 12:18:41;;;;;;;31.93;20.57;;;;;;;;;;5088733;28;20074;-70
2021/12/11 12:21:09;;;;;;;31.47;20.90;;;;;;;;;;5087653;28;20044;-71
2021/12/11 12:23:36;;;;;;;38.33;23.10;;;;;;;;;;5087892;28;20040;-71
2021/12/11 12:26:05;;;;;;;41.57;22.43;;;;;;;;;;5086890;28;20048;-70
2021/12/11 12:28:31;;;;;;;35.60;22.37;;;;;;;;;;5069621;28;20127;-71
2021/12/11 12:31:04;;;;;;;37.97;21.67;;;;;;;;;;5070924;28;20040;-71
2021/12/11 12:33:30;;;;;;;36.20;22.83;;;;;;;;;;5088313;28;20044;-70
2021/12/11 12:35:56;;;;;;;33.47;21.60;;;;;;;;;;5088824;28;20059;-71
2021/12/11 12:38:24;;;;;;;37.53;22.10;;;;;;;;;;5086615;28;20040;-70
2021/12/11 12:40:59;;;;;;;38.33;23.80;;;;;;;;;;5068504;28;20044;-70
2021/12/11 12:46:15;;;;;;;34.93;21.57;;;;;;;;;;5057835;28;20054;-70
2021/12/11 12:48:41;;;;;;;35.23;21.47;;;;;;;;;;5087851;28;20082;-70
2021/12/11 12:51:09;;;;;;;32.90;20.90;;;;;;;;;;5087105;28;20501;-70
2021/12/11 12:53:35;;;;;;;33.80;21.97;;;;;;;;;;5082423;28;20078;-70
2021/12/11 12:56:05;;;;;;;31.83;21.77;;;;;;;;;;5070780;28;20048;-70
2021/12/11 12:58:37;;;;;;;30.33;19.77;;;;;;;;;;5087867;28;20105;-70
2021/12/11 13:01:06;;;;;;;34.75;19.95;;;;;;;;;;5086064;28;20038;-70
2021/12/11 13:03:34;;;;;;;33.27;21.30;;;;;;;;;;5069668;28;20097;-71
2021/12/11 13:06:11;;;;;;;35.63;20.20;;;;;;;;;;5091912;28;20494;-70
2021/12/11 13:08:39;;;;;;;32.53;21.73;;;;;;;;;;5091458;28;20051;-70
2021/12/11 13:11:08;;;;;;;34.13;20.43;;;;;;;;;;5092125;28;20569;-70
2021/12/11 13:13:34;;;;;;;33.50;23.10;;;;;;;;;;5091055;28;20067;-70
2021/12/11 13:16:06;;;;;;;37.97;22.13;;;;;;;;;;5070762;28;20056;-70
2021/12/11 13:18:35;;;;;;;36.97;22.23;;;;;;;;;;5070836;28;20084;-71
2021/12/11 13:21:07;;;;;;;34.90;21.40;;;;;;;;;;5072436;28;20047;-70
2021/12/11 13:23:40;;;;;;;32.70;22.57;;;;;;;;;;5070922;28;20058;-70
2021/12/11 13:26:07;;;;;;;37.13;23.30;;;;;;;;;;5072398;28;20633;-69
2021/12/11 13:28:35;;;;;;;35.63;22.17;;;;;;;;;;5070605;28;20080;-70
2021/12/11 13:31:04;;;;;;;33.30;20.60;;;;;;;;;;5071453;28;20051;-70
2021/12/11 13:33:30;;;;;;;36.80;22.43;;;;;;;;;;5070844;28;20113;-70
2021/12/11 13:35:59;;;;;;;34.53;22.47;;;;;;;;;;5070991;28;20043;-69
2021/12/11 13:38:27;;;;;;;30.83;20.17;;;;;;;;;;5052449;28;20082;-69
2021/12/11 13:41:01;;;;;;;31.33;21.30;;;;;;;;;;5070266;28;20486;-69
2021/12/11 13:43:28;;;;;;;32.70;21.73;;;;;;;;;;5051124;28;20507;-69
2021/12/11 13:45:54;;;;;;;33.80;21.97;;;;;;;;;;5061575;28;20045;-69
2021/12/11 13:48:21;;;;;;;37.33;23.50;;;;;;;;;;5064601;28;20048;-69
2021/12/11 13:50:50;;;;;;;32.30;22.40;;;;;;;;;;5071234;28;20101;-70
2021/12/11 13:53:16;;;;;;;40.07;25.37;;;;;;;;;;5069381;28;20036;-69
2021/12/11 13:55:43;;;;;;;40.10;22.87;;;;;;;;;;5071526;28;20045;-69
2021/12/11 13:58:12;;;;;;;35.53;23.50;;;;;;;;;;5050945;28;20048;-70
2021/12/11 14:00:44;;;;;;;37.27;21.80;;;;;;;;;;5069629;28;20101;-69
2021/12/11 14:03:14;;;;;;;32.20;21.67;;;;;;;;;;5067477;28;20068;-69
2021/12/11 14:05:41;;;;;;;45.50;23.33;;;;;;;;;;5068888;28;20127;-70
2021/12/11 14:08:10;;;;;;;75.83;23.93;;;;;;;;;;5062267;28;20056;-69
2021/12/11 14:10:36;;;;;;;107.97;29.07;;;;;;;;;;5051649;28;20056;-70
2021/12/11 14:13:06;;;;;;;161.43;29.97;;;;;;;;;;5066178;28;20044;-69
2021/12/11 14:15:32;;;;;;;213.57;37.13;;;;;;;;;;5055839;28;20053;-69
2021/12/11 14:17:58;;;;;;;196.43;34.10;;;;;;;;;;5070876;28;20083;-68
2021/12/11 14:20:29;;;;;;;191.13;32.00;;;;;;;;;;5070674;28;20724;-68
2021/12/11 14:22:55;;;;;;;266.57;37.30;;;;;;;;;;5069576;28;20045;-68
2021/12/11 14:25:22;;;;;;;196.77;36.10;;;;;;;;;;5068459;28;20040;-68
2021/12/11 14:27:48;;;;;;;294.80;39.27;;;;;;;;;;5070080;28;20525;-69
2021/12/11 14:30:15;;;;;;;243.13;40.77;;;;;;;;;;5064429;28;20045;-68
2021/12/11 14:32:49;;;;;;;229.70;38.43;;;;;;;;;;5070990;28;20048;-68
2021/12/11 14:35:17;;;;;;;308.23;42.27;;;;;;;;;;5069167;28;20049;-68